createdAt,value
2023-10-04T00:00:07.454Z,99586.03
2023-10-04T00:01:10.873Z,99595.69
2023-10-04T00:02:12.534Z,99590.19
2023-10-04T00:03:14.186Z,99594.34
2023-10-04T00:04:15.954Z,99593.31
2023-10-04T00:05:18.941Z,99594.47
2023-10-04T00:06:20.623Z,99595.81
2023-10-04T00:07:22.268Z,99600.28
2023-10-04T00:08:23.876Z,99599.31
2023-10-04T00:09:25.562Z,99606.47
2023-10-04T00:10:27.223Z,99617.38
2023-10-04T00:11:28.795Z,99619.22
2023-10-04T00:12:30.462Z,99626.84
2023-10-04T00:13:32.772Z,99621.34
2023-10-04T00:14:34.378Z,99624.84
2023-10-04T00:15:36.024Z,99628.34
2023-10-04T00:16:37.848Z,99634.66
2023-10-04T00:17:43.809Z,99640.13
2023-10-04T00:18:45.602Z,99645.81
2023-10-04T00:19:47.392Z,99652.94
2023-10-04T00:20:49.045Z,99653.97
2023-10-04T00:21:50.741Z,99655.91
2023-10-04T00:22:53.537Z,99661.25
2023-10-04T00:23:55.232Z,99665.56
2023-10-04T00:24:57.018Z,99677.34
2023-10-04T00:25:58.767Z,99689.13
2023-10-04T00:27:00.514Z,99698.94
2023-10-04T00:28:02.405Z,99697.56
2023-10-04T00:29:04.430Z,99736.28
2023-10-04T00:30:07.191Z,99730.25
2023-10-04T00:31:08.925Z,99747.00
2023-10-04T00:32:10.920Z,99743.47
2023-10-04T00:33:12.587Z,99764.59
2023-10-04T00:34:14.256Z,99757.03
2023-10-04T00:35:17.677Z,99762.31
2023-10-04T00:36:19.743Z,99755.81
2023-10-04T00:37:21.334Z,99749.34
2023-10-04T00:38:23.034Z,99748.59
2023-10-04T00:39:24.750Z,99755.13
2023-10-04T00:40:31.982Z,99761.88
2023-10-04T00:41:33.733Z,99760.06
2023-10-04T00:42:35.342Z,99756.06
2023-10-04T00:43:53.132Z,99758.53
2023-10-04T00:44:54.776Z,99764.69
2023-10-04T00:45:56.516Z,99776.41
2023-10-04T00:46:58.187Z,99770.56
2023-10-04T00:48:03.985Z,99775.28
2023-10-04T00:49:05.986Z,99784.00
2023-10-04T00:50:08.000Z,99772.63
2023-10-04T00:51:09.681Z,99778.66
2023-10-04T00:52:11.325Z,99774.19
2023-10-04T00:53:20.787Z,99778.28
2023-10-04T00:54:22.583Z,99774.97
2023-10-04T00:55:24.839Z,99778.16
2023-10-04T00:56:26.576Z,99784.97
2023-10-04T00:57:28.704Z,99784.75
2023-10-04T00:58:30.614Z,99784.66
2023-10-04T00:59:32.268Z,99791.53
2023-10-04T01:00:35.936Z,99793.97
2023-10-04T01:01:37.676Z,99802.03
2023-10-04T01:02:39.452Z,99799.91
2023-10-04T01:03:41.321Z,99803.25
2023-10-04T01:04:42.988Z,99803.38
2023-10-04T01:05:44.726Z,99812.63
2023-10-04T01:06:46.422Z,99811.28
2023-10-04T01:07:48.330Z,99812.50
2023-10-04T01:08:49.925Z,99815.28
2023-10-04T01:09:51.804Z,99812.25
2023-10-04T01:10:53.643Z,99824.91
2023-10-04T01:11:55.256Z,99815.59
2023-10-04T01:12:56.974Z,99816.56
2023-10-04T01:13:58.576Z,99811.97
2023-10-04T01:15:00.328Z,99823.00
2023-10-04T01:16:02.531Z,99824.56
2023-10-04T01:17:04.930Z,99823.66
2023-10-04T01:18:09.699Z,99827.28
2023-10-04T01:19:11.668Z,99821.44
2023-10-04T01:20:14.028Z,99825.63
2023-10-04T01:21:15.686Z,99825.38
2023-10-04T01:22:17.337Z,99825.88
2023-10-04T01:23:19.006Z,99838.03
2023-10-04T01:24:20.755Z,99836.91
2023-10-04T01:25:22.407Z,99838.97
2023-10-04T01:26:24.044Z,99834.75
2023-10-04T01:27:25.715Z,99833.34
2023-10-04T01:28:27.686Z,99840.41
2023-10-04T01:29:29.301Z,99833.44
2023-10-04T01:30:31.020Z,99852.66
2023-10-04T01:31:32.682Z,99857.56
2023-10-04T01:32:34.333Z,99863.91
2023-10-04T01:33:36.009Z,99862.47
2023-10-04T01:34:37.898Z,99864.72
2023-10-04T01:35:40.079Z,99875.72
2023-10-04T01:36:41.747Z,99874.63
2023-10-04T01:37:43.416Z,99871.00
2023-10-04T01:38:45.033Z,99871.97
2023-10-04T01:39:46.617Z,99872.47
2023-10-04T01:40:48.232Z,99886.28
2023-10-04T01:41:49.862Z,99886.16
2023-10-04T01:42:51.805Z,99883.78
2023-10-04T01:43:53.416Z,99886.88
2023-10-04T01:44:55.847Z,99887.06
2023-10-04T01:45:59.952Z,99896.38
2023-10-04T01:47:02.638Z,99892.50
2023-10-04T01:48:05.466Z,99892.19
2023-10-04T01:49:07.269Z,99892.31
2023-10-04T01:50:09.464Z,99891.19
2023-10-04T01:51:11.095Z,99890.91
2023-10-04T01:52:12.727Z,99899.09
2023-10-04T01:53:14.499Z,99906.75
2023-10-04T01:54:16.108Z,99905.09
2023-10-04T01:55:17.808Z,99911.78
2023-10-04T01:56:20.347Z,99902.53
2023-10-04T01:57:22.042Z,99910.88
2023-10-04T01:58:23.834Z,99910.88
2023-10-04T01:59:25.436Z,99911.84
2023-10-04T02:00:28.461Z,99909.50
2023-10-04T02:01:30.982Z,99898.28
2023-10-04T02:02:32.642Z,99907.94
2023-10-04T02:03:34.346Z,99909.31
2023-10-04T02:04:35.973Z,99902.66
2023-10-04T02:05:37.586Z,99903.91
2023-10-04T02:06:39.257Z,99905.28
2023-10-04T02:07:40.904Z,99903.59
2023-10-04T02:08:42.477Z,99903.47
2023-10-04T02:09:44.544Z,99910.13
2023-10-04T02:10:46.482Z,99909.00
2023-10-04T02:11:48.393Z,99913.72
2023-10-04T02:12:51.040Z,99903.81
2023-10-04T02:13:52.647Z,99908.94
2023-10-04T02:14:54.470Z,99904.63
2023-10-04T02:15:56.191Z,99913.44
2023-10-04T02:16:57.811Z,99910.22
2023-10-04T02:17:59.672Z,99912.06
2023-10-04T02:19:01.525Z,99911.97
2023-10-04T02:20:03.476Z,99908.41
2023-10-04T02:21:05.090Z,99910.25
2023-10-04T02:22:06.726Z,99911.22
2023-10-04T02:23:08.311Z,99908.41
2023-10-04T02:24:09.965Z,99908.94
2023-10-04T02:25:11.672Z,99916.59
2023-10-04T02:26:13.435Z,99913.53
2023-10-04T02:27:15.050Z,99924.25
2023-10-04T02:28:16.887Z,99927.31
2023-10-04T02:29:18.626Z,99924.81
2023-10-04T02:30:20.708Z,99926.66
2023-10-04T02:31:22.597Z,99922.75
2023-10-04T02:32:24.244Z,99926.91
2023-10-04T02:33:25.955Z,99920.09
2023-10-04T02:34:27.811Z,99916.59
2023-10-04T02:35:29.630Z,99920.81
2023-10-04T02:36:31.434Z,99915.09
2023-10-04T02:37:33.171Z,99914.44
2023-10-04T02:38:35.233Z,99916.53
2023-10-04T02:39:37.660Z,99925.59
2023-10-04T02:40:39.300Z,99919.47
2023-10-04T02:41:40.956Z,99921.13
2023-10-04T02:42:44.322Z,99921.69
2023-10-04T02:43:45.933Z,99923.91
2023-10-04T02:44:47.523Z,99923.13
2023-10-04T02:45:50.709Z,99926.72
2023-10-04T02:46:52.364Z,99916.00
2023-10-04T02:47:54.748Z,99916.03
2023-10-04T02:48:56.395Z,99913.53
2023-10-04T02:49:57.979Z,99917.13
2023-10-04T02:51:00.180Z,99917.84
2023-10-04T02:52:02.095Z,99919.09
2023-10-04T02:53:03.859Z,99915.72
2023-10-04T02:54:05.801Z,99925.22
2023-10-04T02:55:07.803Z,99927.31
2023-10-04T02:56:09.472Z,99921.22
2023-10-04T02:57:18.189Z,99933.72
2023-10-04T02:58:19.830Z,99933.00
2023-10-04T02:59:21.420Z,99927.31
2023-10-04T03:00:23.408Z,99935.94
2023-10-04T03:01:27.943Z,99943.78
2023-10-04T03:02:30.777Z,99941.81
2023-10-04T03:03:32.439Z,99937.22
2023-10-04T03:04:37.903Z,99934.59
2023-10-04T03:05:39.715Z,99940.00
2023-10-04T03:06:41.405Z,99941.38
2023-10-04T03:07:43.638Z,99938.06
2023-10-04T03:08:45.481Z,99938.63
2023-10-04T03:09:47.284Z,99941.41
2023-10-04T03:10:49.132Z,99941.38
2023-10-04T03:11:50.750Z,99941.81
2023-10-04T03:12:56.990Z,99948.50
2023-10-04T03:13:58.751Z,99939.84
2023-10-04T03:15:00.381Z,99942.75
2023-10-04T03:16:02.382Z,99938.44
2023-10-04T03:17:04.053Z,99946.66
2023-10-04T03:18:06.387Z,99941.81
2023-10-04T03:19:08.786Z,99949.88
2023-10-04T03:20:10.736Z,99946.94
2023-10-04T03:21:12.506Z,99948.06
2023-10-04T03:22:18.314Z,99957.09
2023-10-04T03:23:19.966Z,99963.09
2023-10-04T03:24:21.888Z,99956.53
2023-10-04T03:25:23.967Z,99958.19
2023-10-04T03:26:26.107Z,99972.16
2023-10-04T03:27:31.865Z,99969.81
2023-10-04T03:28:35.032Z,99971.34
2023-10-04T03:29:39.082Z,99972.19
2023-10-04T03:30:41.865Z,99976.91
2023-10-04T03:31:43.637Z,99968.81
2023-10-04T03:32:46.924Z,99979.72
2023-10-04T03:33:48.642Z,99979.97
2023-10-04T03:34:51.624Z,99987.78
2023-10-04T03:35:53.304Z,99985.28
2023-10-04T03:36:55.070Z,99987.94
2023-10-04T03:37:56.847Z,99987.78
2023-10-04T03:39:00.186Z,99996.44
2023-10-04T03:40:03.232Z,100001.72
2023-10-04T03:41:05.457Z,99996.69
2023-10-04T03:42:07.300Z,100000.72
2023-10-04T03:43:09.374Z,100006.28
2023-10-04T03:44:13.662Z,100007.25
2023-10-04T03:45:15.541Z,100010.06
2023-10-04T03:46:17.236Z,100015.22
2023-10-04T03:47:19.517Z,100013.69
2023-10-04T03:48:21.221Z,100007.72
2023-10-04T03:49:27.765Z,100015.94
2023-10-04T03:50:29.582Z,100010.19
2023-10-04T03:51:31.468Z,100013.69
2023-10-04T03:52:36.965Z,100013.41
2023-10-04T03:53:38.786Z,100017.69
2023-10-04T03:54:40.659Z,100028.72
2023-10-04T03:55:42.914Z,100027.97
2023-10-04T03:56:45.257Z,100033.13
2023-10-04T03:57:46.941Z,100024.84
2023-10-04T03:58:48.857Z,100023.84
2023-10-04T03:59:50.633Z,100031.06
2023-10-04T04:00:52.229Z,100028.81
2023-10-04T04:01:53.987Z,100025.44
2023-10-04T04:02:55.852Z,100030.19
2023-10-04T04:03:57.674Z,100030.59
2023-10-04T04:04:59.610Z,100032.66
2023-10-04T04:06:01.584Z,100029.50
2023-10-04T04:07:03.234Z,100028.91
2023-10-04T04:08:05.283Z,100032.84
2023-10-04T04:09:07.052Z,100029.34
2023-10-04T04:10:10.344Z,100031.16
2023-10-04T04:11:11.946Z,100030.88
2023-10-04T04:12:13.723Z,100032.16
2023-10-04T04:13:15.359Z,100031.91
2023-10-04T04:14:17.079Z,100031.91
2023-10-04T04:15:19.178Z,100033.84
2023-10-04T04:16:21.414Z,100036.63
2023-10-04T04:17:23.521Z,100033.91
2023-10-04T04:18:26.277Z,100039.88
2023-10-04T04:19:29.911Z,100037.66
2023-10-04T04:20:31.555Z,100047.28
2023-10-04T04:21:33.271Z,100046.91
2023-10-04T04:22:35.611Z,100048.91
2023-10-04T04:23:37.896Z,100050.50
2023-10-04T04:24:39.871Z,100050.09
2023-10-04T04:25:41.588Z,100052.16
2023-10-04T04:26:43.253Z,100052.44
2023-10-04T04:27:45.795Z,100056.44
2023-10-04T04:28:47.824Z,100058.50
2023-10-04T04:29:53.518Z,100051.69
2023-10-04T04:30:55.648Z,100050.69
2023-10-04T04:31:57.320Z,100054.47
2023-10-04T04:32:59.750Z,100068.09
2023-10-04T04:34:03.081Z,100070.84
2023-10-04T04:35:05.314Z,100072.78
2023-10-04T04:36:07.488Z,100082.56
2023-10-04T04:37:09.148Z,100083.91
2023-10-04T04:38:11.725Z,100079.00
2023-10-04T04:39:13.379Z,100086.44
2023-10-04T04:40:15.117Z,100080.72
2023-10-04T04:41:16.766Z,100086.00
2023-10-04T04:42:18.672Z,100092.84
2023-10-04T04:43:21.852Z,100103.03
2023-10-04T04:44:25.369Z,100094.03
2023-10-04T04:45:27.101Z,100101.13
2023-10-04T04:46:29.690Z,100096.13
2023-10-04T04:47:31.346Z,100094.59
2023-10-04T04:48:33.274Z,100101.22
2023-10-04T04:49:36.914Z,100100.75
2023-10-04T04:50:38.752Z,100109.38
2023-10-04T04:51:40.643Z,100103.78
2023-10-04T04:52:42.505Z,100094.56
2023-10-04T04:53:46.097Z,100094.31
2023-10-04T04:54:50.255Z,100099.56
2023-10-04T04:55:52.167Z,100096.06
2023-10-04T04:56:53.850Z,100092.34
2023-10-04T04:57:55.622Z,100104.00
2023-10-04T04:58:57.720Z,100095.78
2023-10-04T05:00:02.873Z,100095.56
2023-10-04T05:01:04.638Z,100093.88
2023-10-04T05:02:08.042Z,100098.38
2023-10-04T05:03:12.490Z,100100.50
2023-10-04T05:04:14.186Z,100097.81
2023-10-04T05:05:15.805Z,100099.94
2023-10-04T05:06:18.796Z,100100.81
2023-10-04T05:07:20.448Z,100094.97
2023-10-04T05:08:22.960Z,100099.66
2023-10-04T05:09:24.604Z,100113.03
2023-10-04T05:10:26.245Z,100097.88
2023-10-04T05:11:27.846Z,100106.00
2023-10-04T05:12:29.605Z,100113.84
2023-10-04T05:13:31.310Z,100103.28
2023-10-04T05:14:33.105Z,100107.78
2023-10-04T05:15:35.710Z,100108.91
2023-10-04T05:16:37.634Z,100107.25
2023-10-04T05:17:39.370Z,100104.75
2023-10-04T05:18:41.125Z,100104.88
2023-10-04T05:19:42.931Z,100104.88
2023-10-04T05:20:45.261Z,100100.56
2023-10-04T05:21:46.962Z,100103.31
2023-10-04T05:22:49.543Z,100101.53
2023-10-04T05:23:51.578Z,100106.66
2023-10-04T05:24:53.376Z,100102.34
2023-10-04T05:25:55.252Z,100100.41
2023-10-04T05:26:56.897Z,100101.03
2023-10-04T05:28:05.501Z,100109.16
2023-10-04T05:29:07.314Z,100106.59
2023-10-04T05:30:09.544Z,100113.28
2023-10-04T05:31:11.302Z,100118.22
2023-10-04T05:32:12.939Z,100106.66
2023-10-04T05:33:16.048Z,100107.66
2023-10-04T05:34:17.737Z,100115.22
2023-10-04T05:35:19.488Z,100110.88
2023-10-04T05:36:21.212Z,100112.97
2023-10-04T05:37:22.914Z,100115.00
2023-10-04T05:38:24.683Z,100107.34
2023-10-04T05:39:26.364Z,100110.00
2023-10-04T05:40:28.034Z,100110.25
2023-10-04T05:41:29.641Z,100115.22
2023-10-04T05:42:31.227Z,100112.47
2023-10-04T05:43:32.871Z,100111.81
2023-10-04T05:44:34.467Z,100104.78
2023-10-04T05:45:36.813Z,100111.13
2023-10-04T05:46:38.446Z,100107.84
2023-10-04T05:47:40.506Z,100105.69
2023-10-04T05:48:42.229Z,100106.06
2023-10-04T05:49:43.803Z,100104.75
2023-10-04T05:50:45.458Z,100106.69
2023-10-04T05:51:47.152Z,100104.00
2023-10-04T05:52:49.347Z,100109.78
2023-10-04T05:53:51.034Z,100109.75
2023-10-04T05:54:52.624Z,100115.69
2023-10-04T05:55:54.281Z,100110.41
2023-10-04T05:56:55.854Z,100106.06
2023-10-04T05:57:57.458Z,100114.66
2023-10-04T05:58:59.079Z,100113.41
2023-10-04T06:00:00.660Z,100114.50
2023-10-04T06:01:02.318Z,100113.66
2023-10-04T06:02:03.935Z,100116.28
2023-10-04T06:03:07.509Z,100118.41
2023-10-04T06:04:09.292Z,100121.53
2023-10-04T06:05:10.942Z,100122.59
2023-10-04T06:06:12.544Z,100113.03
2023-10-04T06:07:14.310Z,100116.63
2023-10-04T06:08:16.438Z,100122.94
2023-10-04T06:09:18.102Z,100127.78
2023-10-04T06:10:19.798Z,100130.94
2023-10-04T06:11:21.426Z,100123.84
2023-10-04T06:12:22.995Z,100126.72
2023-10-04T06:13:25.000Z,100131.00
2023-10-04T06:14:26.703Z,100137.84
2023-10-04T06:15:28.360Z,100135.16
2023-10-04T06:16:30.083Z,100131.94
2023-10-04T06:17:31.721Z,100134.13
2023-10-04T06:18:33.335Z,100130.38
2023-10-04T06:19:35.265Z,100138.22
2023-10-04T06:20:37.179Z,100138.50
2023-10-04T06:21:38.821Z,100136.03
2023-10-04T06:22:40.561Z,100129.19
2023-10-04T06:23:42.134Z,100134.34
2023-10-04T06:24:43.831Z,100136.31
2023-10-04T06:25:50.217Z,100133.13
2023-10-04T06:26:51.838Z,100134.63
2023-10-04T06:27:55.746Z,100139.13
2023-10-04T06:28:57.332Z,100130.22
2023-10-04T06:29:58.983Z,100136.75
2023-10-04T06:31:02.769Z,100130.75
2023-10-04T06:32:04.539Z,100139.41
2023-10-04T06:33:08.257Z,100132.59
2023-10-04T06:34:09.960Z,100134.41
2023-10-04T06:35:11.546Z,100131.75
2023-10-04T06:36:13.192Z,100133.25
2023-10-04T06:37:14.803Z,100129.13
2023-10-04T06:38:16.390Z,100139.63
2023-10-04T06:39:18.048Z,100137.72
2023-10-04T06:40:23.245Z,100140.66
2023-10-04T06:41:24.812Z,100140.31
2023-10-04T06:42:26.411Z,100151.78
2023-10-04T06:43:28.020Z,100149.94
2023-10-04T06:44:29.615Z,100147.91
2023-10-04T06:45:31.978Z,100151.66
2023-10-04T06:46:33.569Z,100147.13
2023-10-04T06:47:35.192Z,100155.44
2023-10-04T06:48:36.861Z,100157.53
2023-10-04T06:49:38.517Z,100149.56
2023-10-04T06:50:41.222Z,100152.31
2023-10-04T06:51:43.172Z,100156.41
2023-10-04T06:52:48.414Z,100154.25
2023-10-04T06:53:50.000Z,100157.97
2023-10-04T06:54:51.619Z,100169.22
2023-10-04T06:56:54.985Z,100171.81
2023-10-04T06:57:56.564Z,100167.41
2023-10-04T06:58:58.153Z,100175.06
2023-10-04T06:59:59.893Z,100174.84
2023-10-04T07:01:02.181Z,100173.91
2023-10-04T07:02:05.290Z,100174.66
2023-10-04T07:03:07.452Z,100173.22
2023-10-04T07:04:09.140Z,100174.69
2023-10-04T07:05:18.970Z,100174.50
2023-10-04T07:06:20.562Z,100173.34
2023-10-04T07:07:22.184Z,100172.72
2023-10-04T07:08:23.790Z,100180.34
2023-10-04T07:09:25.390Z,100176.59
2023-10-04T07:10:28.695Z,100179.09
2023-10-04T07:11:30.386Z,100172.44
2023-10-04T07:12:32.006Z,100171.41
2023-10-04T07:13:35.887Z,100174.56
2023-10-04T07:14:39.635Z,100171.53
2023-10-04T07:15:41.576Z,100170.78
2023-10-04T07:16:43.368Z,100173.44
2023-10-04T07:17:45.509Z,100173.31
2023-10-04T07:18:48.982Z,100172.31
2023-10-04T07:19:51.483Z,100170.72
2023-10-04T07:20:53.070Z,100175.16
2023-10-04T07:21:54.837Z,100172.94
2023-10-04T07:22:57.292Z,100173.69
2023-10-04T07:23:58.870Z,100176.38
2023-10-04T07:25:01.020Z,100184.66
2023-10-04T07:26:02.601Z,100192.06
2023-10-04T07:27:04.632Z,100185.69
2023-10-04T07:28:07.650Z,100186.59
2023-10-04T07:29:09.283Z,100191.28
2023-10-04T07:30:12.199Z,100186.31
2023-10-04T07:31:13.842Z,100193.59
2023-10-04T07:32:15.447Z,100188.31
2023-10-04T07:33:17.065Z,100191.53
2023-10-04T07:34:18.686Z,100189.56
2023-10-04T07:35:22.723Z,100191.56
2023-10-04T07:36:24.397Z,100189.56
2023-10-04T07:37:25.999Z,100200.75
2023-10-04T07:38:27.604Z,100198.84
2023-10-04T07:39:29.302Z,100202.19
2023-10-04T07:40:31.834Z,100207.72
2023-10-04T07:41:33.439Z,100208.94
2023-10-04T07:42:35.057Z,100209.44
2023-10-04T07:43:36.975Z,100205.09
2023-10-04T07:44:38.841Z,100199.88
2023-10-04T07:45:40.698Z,100208.25
2023-10-04T07:46:42.433Z,100215.75
2023-10-04T07:47:44.463Z,100204.63
2023-10-04T07:48:46.427Z,100197.00
2023-10-04T07:49:48.105Z,100204.31
2023-10-04T07:50:49.837Z,100207.16
2023-10-04T07:51:51.487Z,100208.72
2023-10-04T07:52:55.589Z,100210.00
2023-10-04T07:53:57.404Z,100207.66
2023-10-04T07:54:59.190Z,100210.97
2023-10-04T07:56:00.853Z,100212.78
2023-10-04T07:57:02.552Z,100214.59
2023-10-04T07:58:04.286Z,100209.31
2023-10-04T07:59:06.156Z,100222.19
2023-10-04T08:00:08.430Z,100219.66
2023-10-04T08:01:18.379Z,100220.66
2023-10-04T08:02:20.551Z,100216.63
2023-10-04T08:03:22.354Z,100214.75
2023-10-04T08:04:24.074Z,100212.97
2023-10-04T08:05:27.985Z,100215.34
2023-10-04T08:06:29.589Z,100222.78
2023-10-04T08:07:31.163Z,100215.41
2023-10-04T08:08:32.758Z,100214.50
2023-10-04T08:09:34.373Z,100213.94
2023-10-04T08:10:37.853Z,100218.19
2023-10-04T08:11:39.554Z,100222.47
2023-10-04T08:12:42.670Z,100222.75
2023-10-04T08:13:44.274Z,100216.31
2023-10-04T08:14:45.880Z,100211.91
2023-10-04T08:15:47.594Z,100221.03
2023-10-04T08:16:49.694Z,100223.38
2023-10-04T08:17:51.397Z,100217.75
2023-10-04T08:18:53.098Z,100217.81
2023-10-04T08:19:54.745Z,100223.28
2023-10-04T08:20:56.416Z,100225.94
2023-10-04T08:21:58.048Z,100216.31
2023-10-04T08:23:00.046Z,100226.44
2023-10-04T08:24:01.655Z,100224.75
2023-10-04T08:25:03.618Z,100219.38
2023-10-04T08:26:13.905Z,100216.59
2023-10-04T08:27:15.486Z,100220.84
2023-10-04T08:28:17.096Z,100224.00
2023-10-04T08:29:18.702Z,100225.41
2023-10-04T08:30:20.708Z,100220.22
2023-10-04T08:31:22.410Z,100217.66
2023-10-04T08:32:24.043Z,100217.25
2023-10-04T08:33:25.658Z,100216.25
2023-10-04T08:34:30.148Z,100220.84
2023-10-04T08:35:33.566Z,100212.84
2023-10-04T08:36:35.223Z,100213.00
2023-10-04T08:37:36.838Z,100207.72
2023-10-04T08:38:38.430Z,100208.75
2023-10-04T08:39:40.899Z,100207.81
2023-10-04T08:40:42.503Z,100203.16
2023-10-04T08:41:44.849Z,100202.22
2023-10-04T08:42:50.662Z,100199.00
2023-10-04T08:43:52.339Z,100192.94
2023-10-04T08:44:53.917Z,100198.47
2023-10-04T08:45:58.086Z,100199.47
2023-10-04T08:47:05.593Z,100196.81
2023-10-04T08:48:07.498Z,100195.41
2023-10-04T08:49:11.579Z,100196.06
2023-10-04T08:50:16.013Z,100198.75
2023-10-04T08:51:34.273Z,100199.72
2023-10-04T08:52:37.574Z,100207.38
2023-10-04T08:53:45.374Z,100200.63
2023-10-04T08:54:53.328Z,100204.03
2023-10-04T08:56:03.594Z,100197.84
2023-10-04T08:57:24.303Z,100198.94
2023-10-04T08:58:27.327Z,100208.25
2023-10-04T08:59:29.857Z,100200.28
2023-10-04T09:00:35.632Z,100201.47
2023-10-04T09:01:37.862Z,100196.91
2023-10-04T09:02:43.703Z,100201.47
2023-10-04T09:03:46.183Z,100198.28
2023-10-04T09:04:50.115Z,100194.38
2023-10-04T09:05:52.695Z,100192.63
2023-10-04T09:06:54.538Z,100194.59
2023-10-04T09:07:57.693Z,100190.69
2023-10-04T09:08:59.334Z,100187.97
2023-10-04T09:10:03.545Z,100191.03
2023-10-04T09:11:05.386Z,100187.66
2023-10-04T09:12:07.470Z,100187.78
2023-10-04T09:13:09.119Z,100180.69
2023-10-04T09:14:10.789Z,100181.28
2023-10-04T09:15:12.620Z,100181.00
2023-10-04T09:16:29.243Z,100178.66
2023-10-04T09:17:46.889Z,100179.75
2023-10-04T09:18:48.518Z,100178.69
2023-10-04T09:19:50.106Z,100176.47
2023-10-04T09:20:51.705Z,100183.41
2023-10-04T09:21:53.308Z,100174.75
2023-10-04T09:22:55.026Z,100173.63
2023-10-04T09:24:10.890Z,100179.16
2023-10-04T09:25:15.548Z,100182.31
2023-10-04T09:26:17.940Z,100183.31
2023-10-04T09:27:19.609Z,100180.19
2023-10-04T09:28:21.377Z,100180.00
2023-10-04T09:29:49.741Z,100178.72
2023-10-04T09:30:51.418Z,100174.47
2023-10-04T09:31:53.109Z,100166.34
2023-10-04T09:32:54.798Z,100181.41
2023-10-04T09:34:12.843Z,100177.88
2023-10-04T09:35:14.438Z,100173.19
2023-10-04T09:36:36.312Z,100173.72
2023-10-04T09:37:37.879Z,100168.44
2023-10-04T09:38:39.632Z,100165.22
2023-10-04T09:39:41.330Z,100166.31
2023-10-04T09:40:52.399Z,100169.53
2023-10-04T09:41:56.554Z,100165.03
2023-10-04T09:42:58.176Z,100165.66
2023-10-04T09:43:59.800Z,100159.00
2023-10-04T09:45:08.026Z,100163.22
2023-10-04T09:46:11.426Z,100161.59
2023-10-04T09:47:13.702Z,100164.03
2023-10-04T09:48:15.436Z,100157.84
2023-10-04T09:49:17.440Z,100162.25
2023-10-04T09:50:26.164Z,100162.91
2023-10-04T09:51:27.823Z,100163.06
2023-10-04T09:52:29.437Z,100162.97
2023-10-04T09:53:31.078Z,100169.22
2023-10-04T09:54:32.865Z,100166.66
2023-10-04T09:55:35.793Z,100165.66
2023-10-04T09:56:46.445Z,100164.50
2023-10-04T09:57:48.832Z,100170.31
2023-10-04T09:58:53.508Z,100168.28
2023-10-04T09:59:56.956Z,100170.00
2023-10-04T10:01:08.432Z,100169.91
2023-10-04T10:02:11.033Z,100175.91
2023-10-04T10:03:13.649Z,100179.53
2023-10-04T10:04:18.133Z,100181.97
2023-10-04T10:05:29.868Z,100184.84
2023-10-04T10:06:34.792Z,100181.84
2023-10-04T10:07:38.131Z,100191.63
2023-10-04T10:08:44.102Z,100186.72
2023-10-04T10:10:01.152Z,100188.84
2023-10-04T10:11:07.267Z,100185.63
2023-10-04T10:12:09.270Z,100193.50
2023-10-04T10:13:11.199Z,100188.69
2023-10-04T10:14:14.469Z,100196.97
2023-10-04T10:15:16.462Z,100186.72
2023-10-04T10:16:19.162Z,100183.72
2023-10-04T10:17:20.950Z,100188.63
2023-10-04T10:18:22.758Z,100186.47
2023-10-04T10:19:25.173Z,100184.72
2023-10-04T10:20:27.524Z,100177.41
2023-10-04T10:22:06.852Z,100179.88
2023-10-04T10:23:09.326Z,100180.47
2023-10-04T10:24:15.919Z,100182.78
2023-10-04T10:25:17.629Z,100176.06
2023-10-04T10:26:19.949Z,100184.00
2023-10-04T10:27:23.832Z,100182.34
2023-10-04T10:28:25.484Z,100186.88
2023-10-04T10:29:27.562Z,100179.22
2023-10-04T10:30:32.486Z,100185.88
2023-10-04T10:31:36.438Z,100180.09
2023-10-04T10:32:50.033Z,100183.03
2023-10-04T10:33:51.967Z,100175.78
2023-10-04T10:34:59.240Z,100172.97
2023-10-04T10:36:03.972Z,100175.75
2023-10-04T10:37:18.925Z,100173.50
2023-10-04T10:38:42.423Z,100177.06
2023-10-04T10:39:45.302Z,100175.44
2023-10-04T10:40:47.139Z,100175.59
2023-10-04T10:41:48.722Z,100184.00
2023-10-04T10:43:09.673Z,100183.25
2023-10-04T10:44:18.063Z,100179.88
2023-10-04T10:45:26.945Z,100185.91
2023-10-04T10:46:29.539Z,100183.88
2023-10-04T10:47:31.290Z,100174.25
2023-10-04T10:48:33.185Z,100177.78
2023-10-04T10:49:37.639Z,100182.78
2023-10-04T10:50:42.002Z,100178.34
2023-10-04T10:51:44.631Z,100182.31
2023-10-04T10:52:46.281Z,100177.88
2023-10-04T10:53:47.895Z,100178.34
2023-10-04T10:54:49.669Z,100182.69
2023-10-04T10:55:51.343Z,100183.97
2023-10-04T10:56:52.991Z,100185.81
2023-10-04T10:57:54.615Z,100183.78
2023-10-04T10:58:57.884Z,100184.81
2023-10-04T11:00:01.068Z,100182.72
2023-10-04T11:01:02.741Z,100183.91
2023-10-04T11:02:04.593Z,100178.53
2023-10-04T11:03:08.876Z,100177.91
2023-10-04T11:04:10.827Z,100183.03
2023-10-04T11:05:12.568Z,100185.81
2023-10-04T11:06:14.302Z,100180.94
2023-10-04T11:07:16.181Z,100184.09
2023-10-04T11:08:17.782Z,100176.25
2023-10-04T11:09:32.313Z,100181.44
2023-10-04T11:10:42.882Z,100174.75
2023-10-04T11:11:44.690Z,100179.66
2023-10-04T11:12:49.402Z,100186.31
2023-10-04T11:13:51.079Z,100180.31
2023-10-04T11:14:54.027Z,100185.34
2023-10-04T11:15:55.996Z,100182.69
2023-10-04T11:16:57.787Z,100187.38
2023-10-04T11:17:59.461Z,100184.22
2023-10-04T11:19:01.198Z,100190.25
2023-10-04T11:20:20.824Z,100181.97
2023-10-04T11:21:22.462Z,100186.31
2023-10-04T11:22:24.158Z,100190.47
2023-10-04T11:23:25.886Z,100183.72
2023-10-04T11:24:27.550Z,100186.41
2023-10-04T11:25:29.397Z,100192.41
2023-10-04T11:26:30.982Z,100180.69
2023-10-04T11:27:33.717Z,100180.25
2023-10-04T11:28:35.679Z,100182.72
2023-10-04T11:29:38.374Z,100182.53
2023-10-04T11:30:40.210Z,100178.09
2023-10-04T11:31:46.348Z,100178.16
2023-10-04T11:32:48.623Z,100189.03
2023-10-04T11:33:56.592Z,100178.88
2023-10-04T11:34:58.924Z,100179.13
2023-10-04T11:36:00.579Z,100182.06
2023-10-04T11:37:03.548Z,100183.44
2023-10-04T11:38:13.912Z,100185.94
2023-10-04T11:39:16.089Z,100186.94
2023-10-04T11:40:20.022Z,100183.91
2023-10-04T11:41:23.174Z,100182.41
2023-10-04T11:42:24.852Z,100176.06
2023-10-04T11:43:26.601Z,100180.41
2023-10-04T11:44:32.811Z,100186.88
2023-10-04T11:45:34.460Z,100182.25
2023-10-04T11:46:57.401Z,100184.19
2023-10-04T11:48:06.971Z,100179.38
2023-10-04T11:49:12.537Z,100175.00
2023-10-04T11:50:14.117Z,100170.50
2023-10-04T11:51:28.853Z,100169.94
2023-10-04T11:52:32.550Z,100169.88
2023-10-04T11:53:40.972Z,100172.44
2023-10-04T11:54:45.130Z,100170.78
2023-10-04T11:55:46.771Z,100163.03
2023-10-04T11:56:48.366Z,100160.84
2023-10-04T11:57:49.995Z,100162.97
2023-10-04T11:58:55.178Z,100154.78
2023-10-04T11:59:57.894Z,100160.50
2023-10-04T12:01:09.365Z,100158.00
2023-10-04T12:02:10.966Z,100153.94
2023-10-04T12:03:12.866Z,100153.56
2023-10-04T12:04:15.218Z,100158.25
2023-10-04T12:05:17.389Z,100156.06